Time;durP1;ratioP1;P1;durP2;ratioP2;P2;SDS_P1;SDS_P2;PMS_P1;PMS_P2;Temp;Humidity;BMP_temperature;BMP_pressure;BME280_temperature;BME280_humidity;BME280_pressure;Samples;Min_cycle;Max_cycle;Signal;HPM_P1;HPM_P2
2021/06/05 00:02:09;;;;;;;8.10;3.97;;;;;;;16.62;65.38;93250.75;4957224;28;20053;-95
2021/06/05 00:04:55;;;;;;;;;;;;;;;;;;;;;
2021/06/05 00:07:25;;;;;;;6.28;3.83;;;;;;;16.58;65.59;93243.75;4955695;28;20051;-92
2021/06/05 00:10:31;;;;;;;7.75;3.85;;;;;;;16.57;65.52;93247.44;4940605;28;20054;-93
2021/06/05 00:13:17;;;;;;;7.35;3.90;;;;;;;16.58;65.71;93246.38;4972918;28;20047;-93
2021/06/05 00:15:58;;;;;;;8.25;3.95;;;;;;;16.63;66.09;93256.81;4956131;28;20491;-93
2021/06/05 00:18:28;;;;;;;6.68;4.20;;;;;;;16.62;66.19;93252.63;4955818;28;20069;-93
2021/06/05 00:21:12;;;;;;;;;;;;;;;;;;;;;
2021/06/05 00:23:41;;;;;;;5.30;3.72;;;;;;;16.58;65.79;93249.78;4955903;28;20043;-94
2021/06/05 00:26:35;;;;;;;8.65;3.97;;;;;;;16.57;65.75;93242.16;4973341;28;20089;-93
2021/06/05 00:29:26;;;;;;;6.78;3.90;;;;;;;16.60;65.33;93242.34;4939479;28;20065;-91
2021/06/05 00:32:15;;;;;;;7.13;3.95;;;;;;;16.63;65.56;93247.00;4996169;28;20045;-94
2021/06/05 00:35:11;;;;;;;5.93;3.60;;;;;;;16.55;65.50;93239.03;4963587;28;20051;-94
2021/06/05 00:38:01;;;;;;;8.95;3.80;;;;;;;16.56;65.79;93236.09;4996234;28;20103;-93
2021/06/05 00:40:36;;;;;;;;;;;;;;;16.62;65.84;93252.63;4979181;28;20432;-93
2021/06/05 00:43:11;;;;;;;9.13;3.65;;;;;;;16.52;65.54;93237.00;4978695;28;19921;-93
2021/06/05 00:46:01;;;;;;;6.70;3.72;;;;;;;16.58;65.53;93249.03;4979423;28;20054;-94
2021/06/05 00:48:53;;;;;;;5.85;3.72;;;;;;;16.47;65.59;93245.09;4978433;28;20100;-94
2021/06/05 00:51:49;;;;;;;5.28;3.75;;;;;;;16.55;65.44;93260.19;4994087;28;20046;-94
2021/06/05 00:54:22;;;;;;;7.88;3.78;;;;;;;16.47;65.78;93247.72;4994312;28;20057;-93
2021/06/05 00:57:03;;;;;;;8.02;4.53;;;;;;;16.51;65.89;93256.63;4977996;28;20061;-94
2021/06/05 00:59:36;;;;;;;8.52;4.00;;;;;;;16.47;65.62;93253.78;4997518;28;20044;-93
2021/06/05 01:02:17;;;;;;;6.43;3.90;;;;;;;16.49;65.02;93258.78;4981516;28;20053;-94
2021/06/05 01:04:56;;;;;;;;;;;;;;;16.61;65.11;93275.59;4987215;28;20335;-93
2021/06/05 01:07:45;;;;;;;5.72;3.25;;;;;;;16.53;64.39;93265.03;4984793;28;20367;-94
2021/06/05 01:10:33;;;;;;;7.00;3.55;;;;;;;16.51;64.31;93260.03;4983056;28;20443;-93
2021/06/05 01:13:39;;;;;;;10.25;3.63;;;;;;;16.57;64.18;93268.59;4982632;28;20376;-94
2021/06/05 01:16:26;;;;;;;;;;;;;;;;;;;;;
2021/06/05 01:19:32;;;;;;;;;;;;;;;;;;;;;
2021/06/05 01:22:34;;;;;;;10.18;3.40;;;;;;;16.48;68.39;93259.84;4995556;28;20248;-93
2021/06/05 01:25:44;;;;;;;12.05;3.42;;;;;;;16.26;68.61;93237.69;4963671;28;20479;-93
2021/06/05 01:28:46;;;;;;;;;;;;;;;;;;;;;
2021/06/05 01:31:24;;;;;;;6.57;3.03;;;;;;;16.14;70.86;93224.22;4993975;28;20109;-94
2021/06/05 01:34:03;;;;;;;5.88;3.00;;;;;;;15.93;73.19;93224.72;4979567;28;20054;-95
2021/06/05 01:37:21;;;;;;;6.28;3.00;;;;;;;15.98;73.50;93242.31;4979614;28;20042;-94
2021/06/05 01:40:15;;;;;;;;;;;;;;;;;;;;;
2021/06/05 01:46:01;;;;;;;6.25;2.95;;;;;;;15.66;73.95;93252.00;4995648;28;20057;-95
2021/06/05 01:49:07;;;;;;;6.43;3.40;;;;;;;15.48;74.08;93224.69;4980096;28;20133;-95
2021/06/05 01:51:51;;;;;;;7.53;3.78;;;;;;;15.49;74.43;93222.81;4960301;28;20521;-94
2021/06/05 01:54:50;;;;;;;;;;;;;;;;;;;;;
2021/06/05 01:57:47;;;;;;;7.77;4.40;;;;;;;15.40;74.81;93207.72;4993562;28;20073;-94
2021/06/05 02:00:39;;;;;;;7.60;3.90;;;;;;;15.34;75.41;93205.50;4960138;28;20282;-93
2021/06/05 02:03:27;;;;;;;7.30;4.20;;;;;;;15.26;76.27;93203.53;4962311;28;20120;-94
2021/06/05 02:06:23;;;;;;;;;;;;;;;;;;;;;
2021/06/05 02:09:13;;;;;;;8.30;4.70;;;;;;;15.13;77.67;93198.03;4994159;28;20491;-93
2021/06/05 02:11:55;;;;;;;9.25;5.10;;;;;;;15.11;76.98;93196.75;4979464;28;20492;-93
2021/06/05 02:15:14;;;;;;;9.60;5.38;;;;;;;15.15;76.93;93205.63;4963845;28;20043;-94
2021/06/05 02:17:50;;;;;;;9.13;4.57;;;;;;;15.11;76.37;93200.16;4994384;28;20049;-94
2021/06/05 02:20:35;;;;;;;9.30;4.80;;;;;;;15.08;76.54;93184.16;4979026;28;20061;-93
2021/06/05 02:23:21;;;;;;;9.85;5.65;;;;;;;15.01;76.48;93179.28;4993442;28;20423;-93
2021/06/05 02:26:00;;;;;;;8.32;5.32;;;;;;;15.00;76.45;93177.72;4993935;28;20450;-93
2021/06/05 02:29:09;;;;;;;;;;;;;;;;;;;;;
2021/06/05 02:32:13;;;;;;;9.93;5.50;;;;;;;14.98;76.52;93188.56;4987463;28;20046;-93
2021/06/05 02:34:59;;;;;;;11.68;5.50;;;;;;;14.92;76.59;93178.41;4979130;28;20491;-93
2021/06/05 02:38:06;;;;;;;9.45;5.32;;;;;;;14.91;76.96;93190.06;4963240;28;20046;-93
2021/06/05 02:40:44;;;;;;;11.45;5.45;;;;;;;15.05;76.64;93205.84;4976765;28;20085;-94
2021/06/05 02:43:29;;;;;;;12.88;5.10;;;;;;;15.02;76.25;93191.41;4979449;28;20043;-93
2021/06/05 02:46:33;;;;;;;11.23;5.35;;;;;;;14.94;76.14;93174.41;4976484;28;20050;-95
2021/06/05 02:49:12;;;;;;;7.35;5.07;;;;;;;15.05;76.07;93185.53;4967836;28;20042;-94
2021/06/05 02:51:54;;;;;;;10.23;4.88;;;;;;;14.91;75.88;93171.59;4980572;28;20145;-94
2021/06/05 02:54:34;;;;;;;9.43;5.57;;;;;;;14.90;76.37;93173.44;4988067;28;20042;-93
2021/06/05 03:00:35;;;;;;;7.00;4.78;;;;;;;14.82;77.24;93176.00;4979207;28;20042;-93
2021/06/05 03:06:27;;;;;;;7.55;5.18;;;;;;;14.68;76.44;93174.16;4968153;28;20046;-94
2021/06/05 03:09:16;;;;;;;6.78;4.80;;;;;;;14.64;76.27;93169.78;4973113;28;20057;-94
2021/06/05 03:11:55;;;;;;;8.63;4.60;;;;;;;14.54;76.27;93160.19;4972138;28;20110;-95
2021/06/05 03:14:40;;;;;;;7.05;4.30;;;;;;;14.58;76.36;93177.75;4958851;28;20054;-93
2021/06/05 03:17:28;;;;;;;;;;;;;;;;;;;;;
2021/06/05 03:20:19;;;;;;;;;;;;;;;;;;;;;
2021/06/05 03:22:51;;;;;;;14.10;6.25;;;;;;;14.53;76.12;93154.13;4972509;28;20034;-93
2021/06/05 03:25:38;;;;;;;;;;;;;;;;;;;;;
2021/06/05 03:28:09;;;;;;;7.47;4.55;;;;;;;14.51;76.46;93142.34;4956158;28;20454;-94
2021/06/05 03:31:03;;;;;;;9.32;4.65;;;;;;;14.45;76.91;93154.81;4960947;28;20116;-94
2021/06/05 03:33:51;;;;;;;9.23;4.30;;;;;;;14.51;77.89;93176.59;4976358;28;20182;-93
2021/06/05 03:36:29;;;;;;;7.40;4.20;;;;;;;14.41;77.66;93166.22;4945632;28;20061;-93
2021/06/05 03:39:03;;;;;;;6.93;4.57;;;;;;;14.43;78.01;93164.09;4960908;28;20494;-94
2021/06/05 03:41:52;;;;;;;8.65;4.60;;;;;;;14.35;78.16;93163.69;4976178;28;20565;-93
2021/06/05 03:44:27;;;;;;;9.95;4.18;;;;;;;14.40;77.37;93177.84;4959419;28;20073;-93
2021/06/05 03:47:06;;;;;;;7.78;4.63;;;;;;;14.42;76.95;93170.44;4977107;28;20042;-92
2021/06/05 03:50:05;;;;;;;6.78;4.15;;;;;;;14.32;77.18;93148.50;4976384;28;20081;-93
2021/06/05 03:52:41;;;;;;;7.72;4.72;;;;;;;14.41;78.27;93148.59;4976432;28;20074;-93
2021/06/05 03:58:52;;;;;;;8.65;4.80;;;;;;;14.42;77.40;93141.47;4988103;28;20510;-93
2021/06/05 04:01:31;;;;;;;7.57;4.40;;;;;;;14.39;76.78;93129.66;4962932;28;20065;-93
2021/06/05 04:04:12;;;;;;;9.32;4.40;;;;;;;14.43;76.57;93135.88;4975747;28;20141;-93
2021/06/05 04:06:46;;;;;;;7.45;4.47;;;;;;;14.49;77.83;93142.63;4959606;28;20463;-93
2021/06/05 04:09:22;;;;;;;8.50;4.40;;;;;;;14.43;77.35;93133.25;4975758;28;20050;-95
2021/06/05 04:12:16;;;;;;;7.15;5.00;;;;;;;14.48;76.77;93124.50;4975215;28;20046;-93
2021/06/05 04:15:10;;;;;;;6.25;4.10;;;;;;;14.48;76.13;93119.22;4978251;28;20034;-94
2021/06/05 04:21:27;;;;;;;;;;;;;;;;;;;;;
2021/06/05 04:23:55;;;;;;;11.02;4.60;;;;;;;14.79;75.02;93129.91;4974751;28;20050;-93
2021/06/05 04:26:49;;;;;;;7.50;4.43;;;;;;;14.84;75.00;93127.19;4959451;28;20073;-93
2021/06/05 04:29:28;;;;;;;7.18;4.43;;;;;;;14.91;74.94;93137.34;4958715;28;20074;-94
2021/06/05 04:31:58;;;;;;;6.85;4.38;;;;;;;14.92;74.97;93117.78;4975402;28;20046;-92
2021/06/05 04:34:41;;;;;;;;;;;;;;;;;;;;;
2021/06/05 04:37:28;;;;;;;7.47;4.43;;;;;;;15.09;74.59;93117.94;4951087;28;20458;-94
2021/06/05 04:40:24;;;;;;;9.15;4.10;;;;;;;15.26;74.87;93133.09;4963277;28;20049;-92
2021/06/05 04:42:58;;;;;;;8.88;4.30;;;;;;;15.38;74.41;93124.69;4966074;28;20590;-92
2021/06/05 04:45:51;;;;;;;8.15;4.00;;;;;;;15.51;75.17;93125.69;4978522;28;20050;-92
2021/06/05 04:48:34;;;;;;;;;;;;;;;;;;;;;
2021/06/05 04:51:05;;;;;;;10.02;4.20;;;;;;;15.68;75.77;93109.19;4977101;28;20085;-94
2021/06/05 04:54:19;;;;;;;;;;;;;;;;;;;;;
2021/06/05 04:57:07;;;;;;;7.13;4.13;;;;;;;16.11;74.57;93135.06;4977263;28;20037;-95
2021/06/05 05:00:04;;;;;;;6.90;4.15;;;;;;;16.09;72.67;93105.53;4950001;28;20059;-94
2021/06/05 05:03:11;;;;;;;7.90;3.97;;;;;;;16.32;72.14;93119.44;4960246;28;20043;-92
2021/06/05 05:06:06;;;;;;;;;;;;;;;;;;;;;
2021/06/05 05:09:04;;;;;;;7.38;4.07;;;;;;;16.56;72.32;93108.47;4977353;28;20579;-94
2021/06/05 05:11:59;;;;;;;6.80;4.20;;;;;;;16.58;71.28;93119.53;4976237;28;20138;-95
2021/06/05 05:14:37;;;;;;;6.57;4.20;;;;;;;16.72;70.71;93122.81;4959311;28;20101;-93
2021/06/05 05:17:36;;;;;;;8.30;4.20;;;;;;;16.77;70.43;93130.59;4961679;28;20081;-94
2021/06/05 05:20:35;;;;;;;;;;;;;;;;;;;;;
2021/06/05 05:23:37;;;;;;;;;;;;;;;;;;;;;
2021/06/05 05:29:19;;;;;;;7.13;3.97;;;;;;;16.67;68.45;93122.97;4969099;28;20049;-93
2021/06/05 05:32:06;;;;;;;7.40;4.35;;;;;;;16.80;70.20;93143.22;4962539;28;20110;-93
2021/06/05 05:34:43;;;;;;;6.50;4.18;;;;;;;16.80;69.86;93151.16;4958264;28;20050;-93
2021/06/05 05:37:19;;;;;;;9.02;4.25;;;;;;;16.76;70.96;93136.97;4928604;28;20487;-94
2021/06/05 05:40:04;;;;;;;7.60;4.15;;;;;;;16.80;71.55;93130.00;4944078;28;20053;-95
2021/06/05 05:42:44;;;;;;;7.53;4.18;;;;;;;16.96;72.11;93156.78;4946443;28;20055;-94
2021/06/05 05:45:26;;;;;;;;;;;;;;;;;;;;;
2021/06/05 05:48:08;;;;;;;6.75;3.88;;;;;;;16.88;67.69;93143.53;4951489;28;20053;-94
2021/06/05 05:50:54;;;;;;;7.72;4.30;;;;;;;16.77;68.55;93149.09;4942811;28;20105;-93
2021/06/05 05:53:41;;;;;;;;;;;;;;;;;;;;;
2021/06/05 05:56:33;;;;;;;7.85;4.57;;;;;;;16.79;69.07;93135.56;4976088;28;20431;-94
2021/06/05 05:59:16;;;;;;;7.57;4.30;;;;;;;16.87;67.77;93149.94;4958085;28;20053;-93
2021/06/05 06:01:46;;;;;;;7.05;4.30;;;;;;;16.89;66.58;93142.44;4942560;28;20045;-95
2021/06/05 06:04:43;;;;;;;12.45;4.65;;;;;;;16.92;65.62;93141.84;4926195;28;20055;-95
2021/06/05 06:07:20;;;;;;;7.43;4.13;;;;;;;17.05;66.08;93146.22;4957828;28;20065;-94
2021/06/05 06:09:48;;;;;;;9.95;4.00;;;;;;;17.28;65.03;93147.63;4926864;28;20053;-93
2021/06/05 06:12:24;;;;;;;10.70;4.30;;;;;;;17.30;64.90;93138.63;4941345;28;20046;-95
2021/06/05 06:15:16;;;;;;;8.20;4.60;;;;;;;17.54;64.83;93161.94;4942420;28;20054;-93
2021/06/05 06:18:16;;;;;;;5.80;4.20;;;;;;;17.66;64.46;93154.94;4960882;28;20046;-94
2021/06/05 06:21:31;;;;;;;6.68;4.15;;;;;;;17.50;65.55;93145.16;4960727;28;20420;-92
2021/06/05 06:24:22;;;;;;;;;;;;;;;;;;;;;
2021/06/05 06:27:21;;;;;;;;;;;;;;;;;;;;;
2021/06/05 06:30:08;;;;;;;7.32;4.10;;;;;;;18.05;65.01;93155.03;4993515;28;20054;-92
2021/06/05 06:33:23;;;;;;;7.95;4.20;;;;;;;18.23;63.48;93156.53;4961788;28;20084;-93
2021/06/05 06:36:17;;;;;;;7.60;3.80;;;;;;;18.06;61.10;93141.47;4978592;28;20038;-92
2021/06/05 06:39:06;;;;;;;9.27;4.18;;;;;;;18.64;59.75;93154.34;4947594;28;20056;-92
2021/06/05 06:45:05;;;;;;;5.75;4.22;;;;;;;19.46;60.20;93140.75;4990463;28;20058;-92
2021/06/05 06:50:33;;;;;;;9.18;4.35;;;;;;;19.96;58.95;93142.50;4965681;28;20046;-93
2021/06/05 06:53:47;;;;;;;;;;;;;;;;;;;;;
2021/06/05 06:59:42;;;;;;;6.07;3.80;;;;;;;19.98;59.60;93166.09;4979813;28;20042;-94
2021/06/05 07:02:25;;;;;;;;;;;;;;;;;;;;;
2021/06/05 07:05:16;;;;;;;11.32;4.57;;;;;;;19.78;60.91;93151.75;4979220;28;20042;-94
2021/06/05 07:08:20;;;;;;;8.45;4.72;;;;;;;18.99;64.73;93149.66;4976293;28;20077;-94
2021/06/05 07:11:27;;;;;;;7.43;4.72;;;;;;;18.33;66.47;93155.44;4975084;28;20030;-93
2021/06/05 07:14:22;;;;;;;11.27;4.88;;;;;;;18.54;66.89;93160.03;4992285;28;20042;-94
2021/06/05 07:17:00;;;;;;;;;;;;;;;;;;;;;
2021/06/05 07:19:58;;;;;;;10.57;4.53;;;;;;;18.27;65.64;93160.09;4957791;28;20058;-94
2021/06/05 07:22:35;;;;;;;9.77;4.85;;;;;;;18.10;65.43;93179.50;4994496;28;20054;-94
2021/06/05 07:25:09;;;;;;;7.07;4.88;;;;;;;18.28;67.01;93163.53;4955412;28;20088;-95
2021/06/05 07:27:57;;;;;;;;;;;;;;;;;;;;;
2021/06/05 07:30:50;;;;;;;7.10;5.38;;;;;;;18.33;67.94;93160.72;4989892;28;20050;-95
2021/06/05 07:33:22;;;;;;;6.65;4.72;;;;;;;18.59;63.11;93159.84;4976923;28;20035;-94
2021/06/05 07:36:21;;;;;;;7.25;4.40;;;;;;;18.71;60.79;93160.72;4962635;28;20133;-94
2021/06/05 07:38:50;;;;;;;9.95;4.38;;;;;;;18.44;60.56;93151.34;4964189;28;20055;-92
2021/06/05 07:41:51;;;;;;;;;;;;;;;;;;;;;
2021/06/05 07:44:45;;;;;;;8.65;4.97;;;;;;;18.79;60.27;93166.31;4979518;28;20130;-94
2021/06/05 07:47:38;;;;;;;6.93;4.25;;;;;;;19.01;59.54;93158.06;4988335;28;20102;-95
2021/06/05 07:53:47;;;;;;;;;;;;;;;;;;;;;
2021/06/05 07:56:47;;;;;;;;;;;;;;;;;;;;;
2021/06/05 07:59:24;;;;;;;9.88;5.25;;;;;;;18.44;67.19;93164.59;4992721;28;20058;-93
2021/06/05 08:02:05;;;;;;;9.25;5.60;;;;;;;18.65;70.45;93171.81;4992743;28;20042;-93
2021/06/05 08:04:51;;;;;;;8.13;5.93;;;;;;;18.27;72.46;93170.72;4992856;28;20336;-93
2021/06/05 08:07:40;;;;;;;13.82;5.78;;;;;;;18.46;69.62;93165.03;4977721;28;20517;-93
2021/06/05 08:10:10;;;;;;;6.60;4.95;;;;;;;18.47;67.88;93144.63;4960055;28;20055;-92
2021/06/05 08:12:56;;;;;;;11.50;6.45;;;;;;;18.03;71.64;93157.22;4945442;28;20050;-93
2021/06/05 08:18:53;;;;;;;7.22;5.45;;;;;;;18.35;66.05;93147.13;4972680;28;20112;-93
2021/06/05 08:21:55;;;;;;;8.32;5.43;;;;;;;18.47;69.64;93140.09;4969563;28;20410;-92
2021/06/05 08:24:41;;;;;;;9.80;5.80;;;;;;;18.84;69.02;93153.63;4982471;28;20487;-92
2021/06/05 08:27:29;;;;;;;10.00;6.32;;;;;;;18.97;68.86;93143.13;4975872;28;20058;-93
2021/06/05 08:30:04;;;;;;;8.45;5.60;;;;;;;19.10;67.55;93134.16;4959875;28;20163;-94
2021/06/05 08:36:17;;;;;;;;;;;;;;;;;;;;;
2021/06/05 08:39:10;;;;;;;;;;;;;;;;;;;;;
2021/06/05 08:42:02;;;;;;;7.97;5.07;;;;;;;19.44;60.85;93135.75;5003533;28;20060;-93
2021/06/05 08:45:29;;;;;;;8.73;5.78;;;;;;;19.33;65.76;93132.72;5000278;28;20042;-94
2021/06/05 08:48:51;;;;;;;7.22;5.18;;;;;;;18.86;67.40;93146.13;5001959;28;20455;-93
2021/06/05 08:52:05;;;;;;;9.57;7.07;;;;;;;18.44;74.33;93140.72;5000173;28;20045;-93
2021/06/05 08:55:31;;;;;;;;;;;;;;;;;;;;;
2021/06/05 08:58:41;;;;;;;;;;;;;;;;;;;;;
2021/06/05 09:08:54;;;;;;;12.23;5.15;;;;;;;18.91;63.62;93100.88;4953933;29;20095;-94
2021/06/05 09:11:58;;;;;;;8.70;5.30;;;;;;;19.07;64.08;93113.53;4941397;29;20070;-93
2021/06/05 09:15:16;;;;;;;9.20;5.43;;;;;;;18.90;64.76;93109.16;4941241;28;20049;-91
2021/06/05 09:18:41;;;;;;;8.48;5.65;;;;;;;19.39;64.20;93128.00;4999716;28;20075;-93
2021/06/05 09:21:49;;;;;;;9.43;5.45;;;;;;;19.93;63.24;93121.91;4988529;28;20118;-93
2021/06/05 09:28:52;;;;;;;6.82;5.07;;;;;;;20.66;59.18;93118.56;4912135;28;20050;-95
2021/06/05 09:32:08;;;;;;;;;;;;;;;;;;;;;
2021/06/05 09:40:29;;;;;;;;;;;;;;;;;;;;;
2021/06/05 09:43:46;;;;;;;;;;;;;;;;;;;;;
2021/06/05 09:47:25;;;;;;;;;;;;;;;;;;;;;
2021/06/05 09:59:00;;;;;;;11.77;5.13;;;;;;;19.77;62.70;93116.44;4820187;29;20480;-94
2021/06/05 10:02:09;;;;;;;;;;;;;;;;;;;;;
2021/06/05 10:09:01;;;;;;;5.90;3.70;;;;;;;19.68;58.51;93127.13;4884673;29;20055;-93
2021/06/05 10:15:41;;;;;;;;;;;;;;;;;;;;;
2021/06/05 10:18:33;;;;;;;5.95;3.90;;;;;;;20.05;57.21;93131.78;4961148;28;20104;-94
2021/06/05 10:21:34;;;;;;;7.93;3.78;;;;;;;20.52;59.38;93137.47;4963724;28;20038;-93
2021/06/05 10:24:51;;;;;;;;;;;;;;;;;;;;;
2021/06/05 10:27:33;;;;;;;6.93;3.53;;;;;;;20.45;52.85;93115.22;4978950;28;20045;-94
2021/06/05 10:30:41;;;;;;;;;;;;;;;;;;;;;
2021/06/05 10:33:56;;;;;;;5.38;2.70;;;;;;;20.62;48.57;93116.91;4995262;28;20042;-94
2021/06/05 10:40:14;;;;;;;8.18;3.20;;;;;;;21.63;49.43;93124.78;4990133;28;20042;-96
2021/06/05 10:43:15;;;;;;;8.00;3.13;;;;;;;21.58;49.14;93114.38;4981019;28;20038;-95
2021/06/05 10:45:47;;;;;;;7.70;3.67;;;;;;;22.09;49.49;93119.16;4997695;28;20042;-96
2021/06/05 10:49:10;;;;;;;;;;;;;;;;;;;;;
2021/06/05 10:52:57;;;;;;;6.28;3.38;;;;;;;21.74;50.92;93122.41;4989050;28;20049;-93
2021/06/05 10:55:45;;;;;;;9.95;3.50;;;;;;;21.32;51.13;93116.66;4957966;28;20502;-96
2021/06/05 10:58:52;;;;;;;5.90;3.15;;;;;;;21.17;51.34;93126.91;4989986;28;20497;-95
2021/06/05 11:01:45;;;;;;;7.10;3.38;;;;;;;21.68;49.70;93125.66;4991332;28;20498;-96
2021/06/05 11:04:40;;;;;;;7.18;3.40;;;;;;;22.14;49.20;93132.22;4975720;28;20098;-93
2021/06/05 11:07:50;;;;;;;7.60;3.50;;;;;;;22.48;48.03;93116.69;4950180;28;20042;-96
2021/06/05 11:10:48;;;;;;;6.18;3.45;;;;;;;22.40;47.53;93122.97;4990409;28;20038;-93
2021/06/05 11:13:40;;;;;;;6.38;3.70;;;;;;;21.83;49.55;93128.38;4973330;28;20043;-96
2021/06/05 11:16:20;;;;;;;;;;;;;;;21.12;52.27;93129.03;4978633;28;20046;-95
2021/06/05 11:19:06;;;;;;;;;;;;;;;;;;;;;
2021/06/05 11:21:55;;;;;;;6.25;3.53;;;;;;;22.09;49.78;93119.16;4976940;28;20042;-94
2021/06/05 11:24:23;;;;;;;12.07;3.95;;;;;;;22.42;48.80;93105.50;4950449;28;20061;-94
2021/06/05 11:27:03;;;;;;;5.20;3.47;;;;;;;22.58;49.64;93102.81;4944249;28;20170;-95
2021/06/05 11:29:33;;;;;;;6.95;3.85;;;;;;;22.72;49.11;93112.25;4946339;28;20050;-94
2021/06/05 11:32:31;;;;;;;7.00;3.92;;;;;;;22.86;49.13;93097.34;4951066;28;20054;-96
2021/06/05 11:35:47;;;;;;;;;;;;;;;;;;;;;
2021/06/05 11:38:33;;;;;;;5.20;2.97;;;;;;;21.84;48.04;93105.16;4984721;28;20376;-94
2021/06/05 11:41:46;;;;;;;5.93;3.13;;;;;;;21.48;51.16;93100.78;4958503;28;20433;-94
2021/06/05 11:44:41;;;;;;;6.38;3.15;;;;;;;21.53;50.72;93103.22;4966805;28;20046;-93
2021/06/05 11:47:21;;;;;;;6.68;3.42;;;;;;;22.10;51.74;93110.00;4974341;28;20401;-94
2021/06/05 11:50:19;;;;;;;8.95;3.33;;;;;;;22.23;50.62;93106.19;4978250;28;20046;-94
2021/06/05 11:53:31;;;;;;;9.48;3.72;;;;;;;21.65;51.34;93092.50;4946358;28;20043;-93
2021/06/05 11:56:39;;;;;;;5.85;3.70;;;;;;;21.24;51.59;93091.75;4977037;28;20050;-95
2021/06/05 11:59:42;;;;;;;4.95;2.90;;;;;;;21.99;46.95;93077.75;4946514;28;20042;-93
2021/06/05 12:02:36;;;;;;;5.20;3.13;;;;;;;21.81;46.91;93071.97;4959549;28;20042;-93
2021/06/05 12:05:25;;;;;;;6.20;3.55;;;;;;;22.47;50.28;93095.69;4967011;28;20054;-93
2021/06/05 12:07:53;;;;;;;10.30;4.00;;;;;;;22.76;48.73;93078.44;4960342;28;20073;-95
2021/06/05 12:10:47;;;;;;;5.55;3.65;;;;;;;22.03;50.27;93085.84;4960493;28;20426;-93
2021/06/05 12:13:43;;;;;;;9.00;3.80;;;;;;;21.89;51.42;93078.28;4970658;28;20117;-94
2021/06/05 12:16:25;;;;;;;7.80;3.63;;;;;;;21.55;52.44;93071.69;4954115;28;20084;-95
2021/06/05 12:19:15;;;;;;;;;;;;;;;;;;;;;
2021/06/05 12:21:54;;;;;;;8.50;3.70;;;;;;;22.41;49.08;93055.19;4962800;28;20045;-94
2021/06/05 12:24:34;;;;;;;6.10;3.50;;;;;;;22.98;47.52;93061.75;4946932;28;20055;-94
2021/06/05 12:27:07;;;;;;;5.45;3.38;;;;;;;23.37;44.95;93055.69;4960679;28;20062;-93
2021/06/05 12:29:54;;;;;;;6.57;3.50;;;;;;;22.50;46.90;93053.09;4958771;28;20053;-93
2021/06/05 12:32:29;;;;;;;6.63;3.33;;;;;;;21.87;46.76;93061.09;4952387;28;20109;-94
2021/06/05 12:35:07;;;;;;;7.93;3.53;;;;;;;22.11;48.19;93060.94;4960422;28;20046;-94
2021/06/05 12:37:42;;;;;;;6.38;3.75;;;;;;;21.82;47.55;93060.22;4976050;28;20069;-95
2021/06/05 12:40:24;;;;;;;11.18;3.40;;;;;;;21.19;47.97;93063.47;4976024;28;20050;-93
2021/06/05 12:43:14;;;;;;;6.78;3.25;;;;;;;20.69;48.94;93047.94;4977573;28;20039;-93
2021/06/05 12:46:19;;;;;;;;;;;;;;;;;;;;;
2021/06/05 12:49:37;;;;;;;;;;;;;;;;;;;;;
2021/06/05 12:52:34;;;;;;;5.57;3.38;;;;;;;20.90;52.20;93042.50;4999557;28;20050;-93
2021/06/05 12:55:29;;;;;;;8.18;3.80;;;;;;;21.00;53.55;93055.31;4997754;28;20045;-95
2021/06/05 12:58:09;;;;;;;6.40;3.83;;;;;;;21.12;52.44;93046.50;4983655;28;20499;-95
2021/06/05 13:00:51;;;;;;;6.07;3.47;;;;;;;20.66;50.85;93032.66;4980274;28;20066;-94
2021/06/05 13:03:28;;;;;;;7.75;3.92;;;;;;;21.31;51.43;93032.59;4997062;28;20042;-93
2021/06/05 13:06:27;;;;;;;7.90;3.60;;;;;;;22.20;48.83;93050.06;4980458;28;20042;-96
2021/06/05 13:09:27;;;;;;;6.10;3.42;;;;;;;21.85;46.18;93034.00;4964012;28;20452;-93
2021/06/05 13:12:13;;;;;;;;;;;;;;;;;;;;;
2021/06/05 13:15:12;;;;;;;5.38;3.28;;;;;;;21.80;46.29;93033.13;4979707;28;20065;-96
2021/06/05 13:18:04;;;;;;;7.97;3.40;;;;;;;22.29;45.74;93033.94;4981925;28;20129;-95
2021/06/05 13:21:07;;;;;;;9.25;3.70;;;;;;;21.94;46.70;93039.94;4980280;28;20046;-94
2021/06/05 13:24:06;;;;;;;7.82;4.10;;;;;;;22.16;47.04;93034.00;4981735;28;20140;-94
2021/06/05 13:26:52;;;;;;;6.18;3.47;;;;;;;22.15;46.46;93029.78;4979428;28;20073;-95
2021/06/05 13:29:48;;;;;;;;;;;;;;;;;;;;;
2021/06/05 13:35:32;;;;;;;;;;;;;;;;;;;;;
2021/06/05 13:38:37;;;;;;;;;;;;;;;;;;;;;
2021/06/05 13:41:19;;;;;;;6.13;3.85;;;;;;;22.00;49.07;93014.59;4978713;28;20690;-94
2021/06/05 13:44:06;;;;;;;;;;;;;;;;;;;;;
2021/06/05 13:46:51;;;;;;;8.45;3.80;;;;;;;22.57;47.26;93031.91;4996290;28;20265;-95
2021/06/05 13:49:51;;;;;;;7.82;3.70;;;;;;;22.74;46.79;93024.63;4962379;28;20046;-94
2021/06/05 13:52:30;;;;;;;9.70;3.70;;;;;;;22.60;46.44;93033.88;4975368;28;20051;-94
2021/06/05 13:55:39;;;;;;;;;;;;;;;;;;;;;
2021/06/05 13:58:26;;;;;;;8.48;4.32;;;;;;;21.53;48.77;93023.31;4975883;28;20054;-94
2021/06/05 14:01:20;;;;;;;8.27;4.10;;;;;;;21.75;48.69;93020.06;4978849;28;20141;-94
2021/06/05 14:04:05;;;;;;;8.48;4.25;;;;;;;21.68;48.69;93017.22;4994331;28;20078;-94
2021/06/05 14:07:02;;;;;;;;;;;;;;;;;;;;;
2021/06/05 14:09:46;;;;;;;5.43;3.55;;;;;;;21.41;48.76;93016.13;4964308;28;20137;-95
2021/06/05 14:12:50;;;;;;;6.53;3.90;;;;;;;21.17;51.27;93025.00;4990749;28;20050;-94
2021/06/05 14:15:29;;;;;;;7.95;3.92;;;;;;;20.99;50.27;93011.19;4963731;28;20038;-95
2021/06/05 14:18:00;;;;;;;6.20;3.65;;;;;;;21.00;52.03;93008.19;4962803;28;20047;-94
2021/06/05 14:20:49;;;;;;;;;;;;;;;;;;;;;
2021/06/05 14:26:09;;;;;;;9.60;4.60;;;;;;;20.81;52.00;92997.41;4969070;28;20050;-94
2021/06/05 14:28:51;;;;;;;7.55;4.00;;;;;;;20.89;53.86;92985.81;4962838;28;20045;-94
2021/06/05 14:31:32;;;;;;;9.35;4.15;;;;;;;20.85;53.46;92989.50;4961598;28;20034;-96
2021/06/05 14:34:01;;;;;;;7.40;4.03;;;;;;;21.09;53.69;93002.72;4971342;28;20132;-94
2021/06/05 14:36:36;;;;;;;9.25;4.25;;;;;;;21.09;53.35;92996.63;4967448;28;20485;-94
2021/06/05 14:39:10;;;;;;;9.18;4.68;;;;;;;21.12;52.98;92995.94;4967319;28;20511;-95
2021/06/05 14:41:57;;;;;;;13.80;4.45;;;;;;;21.11;53.15;93000.50;4990655;28;20387;-94
2021/06/05 14:44:29;;;;;;;8.15;4.07;;;;;;;20.76;53.49;92997.59;4976981;28;20520;-94
2021/06/05 14:46:55;;;;;;;8.35;4.35;;;;;;;20.76;53.65;92997.59;4978536;28;20109;-94
2021/06/05 14:49:36;;;;;;;;;;;;;;;;;;;;;
2021/06/05 14:52:21;;;;;;;6.75;3.92;;;;;;;20.67;54.17;92987.13;5000302;28;20034;-94
2021/06/05 14:55:14;;;;;;;8.25;3.97;;;;;;;20.58;53.92;92989.91;4963966;28;20056;-94
2021/06/05 14:58:15;;;;;;;;;;;;;;;;;;;;;
2021/06/05 15:01:01;;;;;;;7.22;4.00;;;;;;;20.47;55.76;92990.69;4976138;28;20058;-94
2021/06/05 15:04:00;;;;;;;6.45;3.67;;;;;;;20.23;57.00;92986.16;4961537;28;20053;-94
2021/06/05 15:06:44;;;;;;;5.32;3.22;;;;;;;19.99;57.17;92982.41;4961166;28;20503;-92
2021/06/05 15:09:20;;;;;;;8.50;3.70;;;;;;;20.01;56.85;92985.50;4977566;28;20543;-94
2021/06/05 15:12:00;;;;;;;55.72;11.35;;;;;;;20.07;57.97;92991.38;4975967;28;20038;-92
2021/06/05 15:14:54;;;;;;;7.57;3.20;;;;;;;19.89;56.32;92980.19;4960197;28;20431;-94
2021/06/05 15:29:44;;;;;;;;;;;;;;;;;;;;;
2021/06/05 15:32:39;;;;;;;;;;;;;;;;;;;;;
2021/06/05 15:35:37;;;;;;;12.07;4.05;;;;;;;21.43;51.85;92939.34;4912153;29;20094;-93
2021/06/05 15:39:18;;;;;;;10.65;4.18;;;;;;;21.83;50.80;92952.50;4879752;29;20049;-95
2021/06/05 15:42:36;;;;;;;;;;;;;;;;;;;;;
2021/06/05 15:46:14;;;;;;;;;;;;;;;;;;;;;
2021/06/05 15:49:31;;;;;;;5.68;2.95;;;;;;;21.51;52.72;92953.63;4896342;29;20047;-94
2021/06/05 15:53:10;;;;;;;;;;;;;;;;;;;;;
2021/06/05 16:00:37;;;;;;;;;;;;;;;;;;;;;
2021/06/05 16:08:26;;;;;;;;;;;;;;;;;;;;;
2021/06/05 16:11:50;;;;;;;10.25;3.80;;;;;;;19.84;57.17;92949.31;4850111;29;20109;-94
2021/06/05 16:19:30;;;;;;;;;;;;;;;;;;;;;
2021/06/05 16:30:03;;;;;;;;;;;;;;;;;;;;;
2021/06/05 16:37:12;;;;;;;4.90;2.70;;;;;;;19.12;61.87;92959.47;4939487;29;20109;-94
2021/06/05 16:40:36;;;;;;;;;;;;;;;;;;;;;
2021/06/05 17:10:01;;;;;;;7.07;2.80;;;;;;;19.46;59.34;92938.97;4806619;29;20070;-94
2021/06/05 17:21:54;;;;;;;;;;;;;;;;;;;;;
2021/06/05 17:32:05;;;;;;;6.30;2.40;;;;;;;18.24;63.26;92948.00;4798005;29;20053;-93
2021/06/05 17:34:59;;;;;;;;;;;;;;;;;;;;;
2021/06/05 17:37:56;;;;;;;;;;;;;;;;;;;;;
2021/06/05 17:40:28;;;;;;;8.68;3.10;;;;;;;18.38;63.21;92955.69;4883438;29;20456;-95
2021/06/05 17:43:38;;;;;;;5.22;2.60;;;;;;;18.39;62.67;92955.34;4883884;29;20056;-93
2021/06/05 17:46:31;;;;;;;5.00;2.72;;;;;;;18.10;62.17;92934.97;4883978;29;20685;-95
2021/06/05 17:49:38;;;;;;;4.60;2.03;;;;;;;18.20;58.27;92945.22;4881968;29;20135;-93
2021/06/05 17:52:18;;;;;;;;;;;;;;;;;;;;;
2021/06/05 17:55:20;;;;;;;6.63;2.00;;;;;;;18.10;55.62;92940.28;4898317;29;20135;-93